Terminal Aerodrome Forecast
Issued by NWS Pendleton, OR

Home | Current Version | Previous Version | Text Only | Print | Product List | Glossary On
Versions: 1 2 3 4 5 6 7 8 9 10 11 12 13 14 15 16 17 18 19 20
055
FTUS46 KPDT 121833 AAA
TAFPDT
TAF AMD
KPDT 121833Z 1219/1318 VRB04KT P6SM SCT006 OVC100
     FM122000 27005KT P6SM VCSH BKN070 OVC100
     FM130000 27008KT 6SM -RA BKN025 OVC050
     FM130600 25007KT 6SM -SHRA OVC040
     FM131100 25011KT 6SM BR BKN050=

USA.gov is the U.S. government's official web portal to all federal, state and local government web resources and services.